Terminal Aerodrome Forecast
Issued by NWS Chicago, IL

Home | Current Version | Previous Version | Graphics & Text | Print | Product List | Glossary On
Versions: 1 2 3 4 5 6 7 8 9 10 11 12 13 14 15 16 17 18 19 20 21 22 23 24 25
892
FTUS43 KLOT 240314 AAA
TAFRFD
TAF AMD
KRFD 240314Z 2403/2424 VRB03KT 2SM BR SCT003 SCT013 OVC090
      TEMPO 2403/2406 3/4SM BR BKN003 BKN013
     FM240600 VRB03KT 2SM BCFG SCT003 OVC007
     FM241200 03007KT 4SM BR VCSH SCT003 OVC006
     FM241500 03009KT P6SM SCT008 BKN015
     FM241800 03011G18KT P6SM SCT009 BKN020 BKN090=

USA.gov is the U.S. government's official web portal to all federal, state and local government web resources and services.